Latest Weather Observations for Gosford

IDN60901

Issued at 2:25 pm EST Wednesday 3 September 2014 (issued every 10 minutes, with the page automatically refreshed every 10 minutes)

About weather observations | Map of Sydney area stations | Latest observations for Sydney area | Other Formats
Station Details ID: 061425 Name: GOSFORD AWS Lat: -33.44 Lon: 151.36 Height: 7.0 m
Data from the previous 72 hours. | See also: Recent months at Gosford
Date/Time
EST
Tmp

°C
App
Tmp
°C
Dew
Point
°C
Rel
Hum
%
Delta-T

°C
Wind Press
QNH
hPa
Press
MSL
hPa
Rain
since
9 am
mm
Dir
 
Spd
km/h
Gust
km/h
Spd
kts
Gust
kts
03/02:22pm 15.8 9.8 8.5 62 3.7 SSW 30 52 16 28 - - 0.0
03/02:00pm 15.6 10.2 9.5 67 3.2 SSW 28 43 15 23 - - 0.0
03/01:30pm 15.5 9.1 9.4 67 3.1 SSW 33 54 18 29 - - 0.0
03/01:00pm 15.6 9.3 9.1 65 3.3 SW 32 59 17 32 - - 0.0
03/12:31pm 15.0 9.6 9.4 69 2.9 SSW 28 48 15 26 - - 0.0
03/12:30pm 15.1 9.3 9.5 69 2.9 SSW 30 48 16 26 - - 0.0
03/12:00pm 15.4 10.1 9.7 69 3.0 SSW 28 50 15 27 - - 0.0
03/11:30am 14.6 8.7 9.2 70 2.8 SSW 30 48 16 26 - - 0.0
03/11:00am 14.3 8.8 9.1 71 2.6 SSW 28 54 15 29 - - 0.0
03/10:42am 14.1 8.4 8.5 69 2.8 SSW 28 48 15 26 - - 0.0
03/10:30am 14.2 8.3 9.2 72 2.5 SSW 30 43 16 23 - - 0.0
03/10:15am 13.8 8.2 8.8 72 2.5 SW 28 52 15 28 - - 0.0
03/10:00am 13.6 8.5 9.1 74 2.3 SW 26 48 14 26 - - 0.0
03/09:37am 13.3 7.6 8.2 71 2.5 SW 28 46 15 25 - - 0.0
03/09:30am 13.1 8.2 8.4 73 2.3 SW 24 43 13 23 - - 0.0
03/09:00am 12.5 7.4 7.8 73 2.3 SW 24 39 13 21 - - 2.8
03/08:38am 12.1 6.2 7.4 73 2.3 SW 28 50 15 27 - - 2.8
03/08:30am 12.1 6.9 7.4 73 2.3 WSW 24 50 13 27 - - 2.8
03/08:00am 11.7 6.1 7.2 74 2.2 SW 26 44 14 24 - - 2.8
03/07:30am 11.6 6.3 6.7 72 2.3 SW 24 43 13 23 - - 2.8
03/07:00am 11.3 6.0 6.6 73 2.2 SW 24 46 13 25 - - 2.8
03/06:39am 11.4 5.2 6.3 71 2.4 WSW 28 48 15 26 - - 2.8
03/06:30am 11.3 6.3 6.6 73 2.2 WSW 22 39 12 21 - - 2.8
03/06:00am 11.5 5.9 7.0 74 2.1 WSW 26 46 14 25 - - 2.8
03/05:30am 11.5 6.7 7.4 76 2.0 WSW 22 39 12 21 - - 2.8
03/05:00am 11.3 7.1 7.4 77 1.9 WSW 19 37 10 20 - - 2.8
03/04:30am 11.4 7.0 7.5 77 1.9 WSW 20 33 11 18 - - 2.8
03/04:00am 11.7 6.3 7.8 77 1.9 SW 26 43 14 23 - - 2.8
03/03:30am 11.7 5.1 7.6 76 2.0 SW 32 65 17 35 - - 2.8
03/03:00am 11.2 5.4 7.9 80 1.6 WSW 28 50 15 27 - - 2.8
03/02:54am 11.4 5.3 8.1 80 1.6 WSW 30 50 16 27 - - 2.8
03/02:30am 10.9 5.6 8.5 85 1.2 WSW 26 44 14 24 - - 2.8
03/02:00am 10.8 5.2 8.7 87 1.0 SW 28 48 15 26 - - 2.8
03/01:46am 10.7 5.2 9.0 89 0.8 WSW 28 48 15 26 - - 2.8
03/01:30am 10.7 5.8 8.6 87 1.0 WSW 24 41 13 22 - - 2.8
03/01:08am 10.8 5.3 9.1 89 0.8 WSW 28 46 15 25 - - 2.8
03/01:00am 10.6 5.5 9.2 91 0.7 WSW 26 39 14 21 - - 2.8
03/12:30am 9.8 4.6 9.0 95 0.4 WSW 26 43 14 23 - - 2.8
03/12:00am 9.4 5.5 9.3 99 0.0 WSW 20 32 11 17 - - 2.8
 
Date/Time
EST
Tmp

°C
App
Tmp
°C
Dew
Point
°C
Rel
Hum
%
Delta-T

°C
Wind Press
QNH
hPa
Press
MSL
hPa
Rain
since
9 am
mm
Dir
 
Spd
km/h
Gust
km/h
Spd
kts
Gust
kts
02/11:30pm 9.7 5.0 9.2 97 0.2 WSW 24 46 13 25 - - 2.8
02/11:00pm 10.1 6.1 9.0 93 0.5 WSW 20 35 11 19 - - 2.8
02/10:30pm 10.3 6.3 9.1 92 0.6 WSW 20 43 11 23 - - 2.8
02/10:00pm 10.3 6.7 9.7 96 0.3 WSW 19 30 10 16 - - 2.8
02/09:30pm 11.6 6.5 9.2 85 1.2 SW 26 41 14 22 - - 2.6
02/09:05pm 12.5 7.0 9.0 79 1.8 SW 28 48 15 26 - - 2.6
02/09:00pm 12.5 7.3 8.8 78 1.8 SW 26 43 14 23 - - 2.6
02/08:40pm 13.1 7.7 9.4 78 1.9 SW 28 50 15 27 - - 2.6
02/08:30pm 13.3 9.0 9.5 78 1.9 SW 22 37 12 20 - - 2.6
02/08:00pm 13.5 11.0 9.6 77 2.0 WSW 13 33 7 18 - - 2.6
02/07:30pm 13.0 11.3 10.0 82 1.5 WSW 9 15 5 8 - - 2.6
02/07:00pm 13.0 10.6 10.0 82 1.5 W 13 19 7 10 - - 2.6
02/06:30pm 13.2 10.3 9.8 80 1.7 W 15 28 8 15 - - 2.6
02/06:00pm 13.9 10.7 9.9 77 2.1 WSW 17 28 9 15 - - 2.6
02/05:30pm 14.3 11.6 10.5 78 2.0 WSW 15 20 8 11 - - 2.6
02/05:00pm 13.9 12.2 11.2 84 1.4 WSW 11 17 6 9 - - 2.6
02/04:30pm 14.0 10.3 11.5 85 1.3 SSW 22 37 12 20 - - 2.6
02/04:00pm 14.1 11.1 12.1 88 1.1 S 19 33 10 18 - - 2.6
02/03:30pm 15.1 14.6 13.8 92 0.7 S 9 15 5 8 - - 2.6
02/03:00pm 14.9 14.1 13.9 94 0.6 S 11 22 6 12 - - 2.6
02/02:30pm 15.0 14.4 13.4 90 0.9 SSE 9 19 5 10 - - 2.6
02/02:00pm 15.7 14.1 11.7 77 2.2 SW 11 24 6 13 - - 2.6
02/01:30pm 15.1 16.2 14.6 97 0.3 SSW 2 9 1 5 - - 2.6
02/01:00pm 13.5 14.2 13.5 100 0.0 ENE 2 4 1 2 - - 2.6
02/12:30pm 12.7 - - - - ENE 6 7 3 4 - - 2.6
02/12:00pm 13.0 - 13.1 - - E 2 6 1 3 - - 1.8
02/11:30am 14.4 11.9 13.4 94 0.6 WSW 19 30 10 16 - - 0.2
02/11:00am 16.4 16.4 13.7 84 1.5 ENE 6 7 3 4 - - 0.0
02/10:30am 16.3 16.9 13.0 81 1.8 NNE 2 6 1 3 - - 0.0
02/10:00am 16.3 15.9 12.3 77 2.2 N 6 9 3 5 - - 0.0
02/09:30am 15.6 16.3 13.3 86 1.3 N 2 4 1 2 - - 0.0
02/09:00am 14.8 14.8 12.5 86 1.3 N 4 6 2 3 - - 0.2
02/08:30am 15.2 16.2 13.2 88 1.1 CALM 0 4 0 2 - - 0.2
02/08:00am 15.1 15.0 12.2 83 1.6 NW 4 9 2 5 - - 0.2
02/07:30am 15.3 15.1 11.7 79 1.9 NNW 4 9 2 5 - - 0.2
02/07:00am 14.8 14.6 11.8 82 1.6 WNW 4 7 2 4 - - 0.2
02/06:30am 14.2 13.7 12.2 88 1.1 W 6 9 3 5 - - 0.2
02/06:00am 14.8 14.8 12.3 85 1.4 W 4 6 2 3 - - 0.2
02/05:30am 14.7 14.1 12.4 86 1.3 W 7 11 4 6 - - 0.2
02/05:00am 13.0 12.8 12.9 99 0.1 S 6 11 3 6 - - 0.2
02/04:30am 13.4 13.6 13.2 99 0.1 N 4 6 2 3 - - 0.2
02/04:00am 13.4 12.8 13.4 100 0.0 W 9 19 5 10 - - 0.2
02/03:30am 12.7 - - - - CALM 0 2 0 1 - - 0.2
02/03:00am 12.5 - - - - CALM 0 4 0 2 - - 0.2
02/02:30am 12.2 - - - - CALM 0 0 0 0 - - 0.2
02/02:00am 12.2 - - - - CALM 0 0 0 0 - - 0.2
02/01:30am 12.3 - - - - CALM 0 0 0 0 - - 0.2
02/01:00am 13.0 13.9 13.0 100 0.0 CALM 0 0 0 0 - - 0.2
02/12:30am 12.5 - - - - CALM 0 0 0 0 - - 0.2
02/12:00am 13.2 14.2 13.2 100 0.0 CALM 0 2 0 1 - - 0.2
 
Date/Time
EST
Tmp

°C
App
Tmp
°C
Dew
Point
°C
Rel
Hum
%
Delta-T

°C
Wind Press
QNH
hPa
Press
MSL
hPa
Rain
since
9 am
mm
Dir
 
Spd
km/h
Gust
km/h
Spd
kts
Gust
kts
01/11:30pm 12.7 - - - - CALM 0 6 0 3 - - 0.2
01/11:00pm 13.0 13.9 13.0 100 0.0 CALM 0 0 0 0 - - 0.2
01/10:30pm 13.4 14.5 13.4 100 0.0 CALM 0 0 0 0 - - 0.2
01/10:00pm 13.5 14.2 13.5 100 0.0 NE 2 4 1 2 - - 0.2
01/09:30pm 13.9 15.0 13.6 98 0.2 CALM 0 4 0 2 - - 0.2
01/09:00pm 14.7 14.6 13.2 91 0.8 N 6 9 3 5 - - 0.2
01/08:30pm 15.5 16.2 13.5 88 1.1 N 2 7 1 4 - - 0.2
01/08:00pm 17.2 17.0 13.7 80 2.0 N 7 11 4 6 - - 0.2
01/07:30pm 18.4 17.9 13.9 75 2.6 N 9 15 5 8 - - 0.2
01/07:00pm 19.2 18.8 14.2 73 2.9 N 9 13 5 7 - - 0.2
01/06:30pm 18.7 18.9 14.2 75 2.6 N 6 13 3 7 - - 0.2
01/06:00pm 19.8 20.0 14.8 73 2.9 NNE 7 15 4 8 - - 0.2
01/05:30pm 20.5 20.9 14.8 70 3.3 NNE 6 11 3 6 - - 0.2
01/05:00pm 20.3 21.4 15.5 74 2.8 NE 4 7 2 4 - - 0.2
01/04:30pm 20.5 21.4 16.1 76 2.6 ENE 6 7 3 4 - - 0.2
01/04:00pm 20.9 20.5 15.2 70 3.4 E 11 15 6 8 - - 0.2
01/03:30pm 21.6 21.2 15.2 67 3.8 E 11 17 6 9 - - 0.2
01/03:00pm 23.4 24.3 14.1 56 5.5 N 2 7 1 4 - - 0.2
01/02:30pm 23.3 23.7 13.8 55 5.5 N 4 11 2 6 - - 0.2
01/02:00pm 23.1 22.9 13.0 53 5.8 NW 6 9 3 5 - - 0.2
01/01:30pm 22.6 21.5 13.1 55 5.5 W 11 22 6 12 - - 0.2
01/01:00pm 22.9 21.7 12.8 53 5.8 WNW 11 19 6 10 - - 0.2
01/12:30pm 22.1 21.6 12.6 55 5.4 NW 7 13 4 7 - - 0.2
01/12:00pm 21.8 21.5 12.6 56 5.2 W 6 13 3 7 - - 0.2
01/11:30am 21.3 20.4 13.7 62 4.4 W 11 20 6 11 - - 0.2
01/11:00am 21.1 20.3 14.0 64 4.1 WNW 11 17 6 9 - - 0.2
01/10:30am 20.3 18.5 13.3 64 4.0 WNW 15 22 8 12 - - 0.0
01/10:00am 20.0 20.3 15.0 73 2.9 WNW 7 15 4 8 - - 0.0
01/09:30am 18.4 19.7 15.1 81 1.9 N 2 7 1 4 - - 0.0
01/09:00am 16.1 17.9 15.5 96 0.3 CALM 0 0 0 0 - - 0.0
01/08:30am 13.7 - - - - CALM 0 4 0 2 - - 0.0
01/08:00am 12.1 - - - - CALM 0 0 0 0 - - 0.0
01/07:30am 10.3 - - - - CALM 0 0 0 0 - - 0.0
01/07:00am 9.3 - - - - CALM 0 0 0 0 - - 0.0
01/06:30am 7.8 - - - - CALM 0 0 0 0 - - 0.0
01/06:00am 8.1 - - - - CALM 0 0 0 0 - - 0.0
01/05:30am 8.0 - - - - CALM 0 0 0 0 - - 0.0
01/05:00am 8.2 - - - - CALM 0 0 0 0 - - 0.0
01/04:30am 8.4 - - - - CALM 0 0 0 0 - - 0.0
01/04:00am 8.4 - - - - CALM 0 0 0 0 - - 0.0
01/03:30am 8.7 - - - - CALM 0 0 0 0 - - 0.0
01/03:00am 8.8 - - - - CALM 0 0 0 0 - - 0.0
01/02:30am 9.2 - - - - CALM 0 0 0 0 - - 0.0
01/02:00am 9.4 - - - - CALM 0 0 0 0 - - 0.0
01/01:30am 9.7 - - - - CALM 0 0 0 0 - - 0.0
01/01:00am 10.0 - - - - CALM 0 0 0 0 - - 0.0
01/12:30am 9.9 - - - - CALM 0 0 0 0 - - 0.0
01/12:00am 10.5 - - - - CALM 0 0 0 0 - - 0.0
 
Date/Time
EST
Tmp

°C
App
Tmp
°C
Dew
Point
°C
Rel
Hum
%
Delta-T

°C
Wind Press
QNH
hPa
Press
MSL
hPa
Rain
since
9 am
mm
Dir
 
Spd
km/h
Gust
km/h
Spd
kts
Gust
kts
31/11:30pm 10.4 - - - - CALM 0 0 0 0 - - 0.0
31/11:00pm 11.1 - - - - CALM 0 0 0 0 - - 0.0
31/10:30pm 11.2 - - - - CALM 0 0 0 0 - - 0.0
31/10:00pm 11.3 - - - - CALM 0 0 0 0 - - 0.0
31/09:30pm 11.2 - - - - CALM 0 0 0 0 - - 0.0
31/09:00pm 11.6 - - - - CALM 0 0 0 0 - - 0.0
31/08:30pm 12.1 - - - - CALM 0 0 0 0 - - 0.0
31/08:00pm 12.7 - - - - CALM 0 0 0 0 - - 0.0
31/07:30pm 12.9 - - - - CALM 0 0 0 0 - - 0.0
31/07:00pm 13.3 - - - - CALM 0 0 0 0 - - 0.0
31/06:30pm 14.2 - - - - CALM 0 0 0 0 - - 0.0
31/06:00pm 14.9 16.5 14.9 100 0.0 CALM 0 0 0 0 - - 0.0
31/05:30pm 16.4 17.2 15.9 97 0.3 E 6 9 3 5 - - 0.0
31/05:00pm 17.2 17.6 15.4 89 1.1 E 7 11 4 6 - - 0.0
31/04:30pm 18.1 18.8 16.1 88 1.2 E 7 11 4 6 - - 0.0
31/04:00pm 18.8 19.5 16.2 85 1.6 SE 7 11 4 6 - - 0.0
31/03:30pm 19.2 20.0 16.4 84 1.7 E 7 13 4 7 - - 0.0
31/03:00pm 19.9 20.8 16.0 78 2.3 SSW 6 9 3 5 - - 0.0
31/02:30pm 19.8 20.4 15.4 76 2.6 SSW 6 9 3 5 - - 0.0

Latest Capital City Observations: Canberra | Sydney | Melbourne | Brisbane | Adelaide | Perth | Hobart | Darwin

Other Formats:

Comma delimited format used in spreadsheet applications
http://www.bom.gov.au/fwo/IDN60901/IDN60901.94782.axf

JavaScript Object Notation format (JSON) in row-major order
http://www.bom.gov.au/fwo/IDN60901/IDN60901.94782.json